createdAt,value
2023-02-09T00:00:50.494Z,9.80
2023-02-09T00:03:38.259Z,10.65
2023-02-09T00:06:26.301Z,11.53
2023-02-09T00:09:13.725Z,11.22
2023-02-09T00:12:18.980Z,11.28
2023-02-09T00:15:08.389Z,12.80
2023-02-09T00:17:55.594Z,13.50
2023-02-09T00:20:43.170Z,11.85
2023-02-09T00:23:33.354Z,11.35
2023-02-09T00:26:20.675Z,11.75
2023-02-09T00:29:08.649Z,12.88
2023-02-09T00:31:56.164Z,13.08
2023-02-09T00:34:43.598Z,13.15
2023-02-09T00:37:31.256Z,12.18
2023-02-09T00:40:18.887Z,12.20
2023-02-09T00:43:06.712Z,12.85
2023-02-09T00:45:54.092Z,13.28
2023-02-09T00:48:41.207Z,12.53
2023-02-09T00:51:28.677Z,13.72
2023-02-09T00:54:18.329Z,13.60
2023-02-09T00:57:05.908Z,14.00
2023-02-09T00:59:53.286Z,13.25
2023-02-09T01:02:41.014Z,13.35
2023-02-09T01:05:28.644Z,12.70
2023-02-09T01:08:16.242Z,13.13
2023-02-09T01:11:15.019Z,14.53
2023-02-09T01:14:03.899Z,12.23
2023-02-09T01:16:51.498Z,13.15
2023-02-09T01:19:38.851Z,13.93
2023-02-09T01:22:26.070Z,13.48
2023-02-09T01:25:13.470Z,14.10
2023-02-09T01:28:00.931Z,12.45
2023-02-09T01:30:48.598Z,12.78
2023-02-09T01:33:36.149Z,11.73
2023-02-09T01:36:23.841Z,13.55
2023-02-09T01:39:13.108Z,12.73
2023-02-09T01:42:00.565Z,13.20
2023-02-09T01:45:09.099Z,12.88
2023-02-09T01:48:03.424Z,12.63
2023-02-09T01:50:53.373Z,13.62
2023-02-09T01:53:40.890Z,13.03
2023-02-09T01:56:31.703Z,13.08
2023-02-09T01:59:19.882Z,13.95
2023-02-09T02:02:08.905Z,12.75
2023-02-09T02:04:56.481Z,12.90
2023-02-09T02:07:49.898Z,13.80
2023-02-09T02:10:37.066Z,14.30
2023-02-09T02:13:24.594Z,13.68
2023-02-09T02:16:20.866Z,12.78
2023-02-09T02:19:17.185Z,13.72
2023-02-09T02:22:33.619Z,14.43
2023-02-09T02:25:40.904Z,14.35
2023-02-09T02:28:52.792Z,13.83
2023-02-09T02:32:10.643Z,13.93
2023-02-09T02:35:13.003Z,13.80
2023-02-09T02:38:12.304Z,14.28
2023-02-09T02:41:05.613Z,13.28
2023-02-09T02:44:01.814Z,13.22
2023-02-09T02:46:52.084Z,14.80
2023-02-09T02:49:42.424Z,14.05
2023-02-09T02:52:29.699Z,15.55
2023-02-09T02:55:20.006Z,14.98
2023-02-09T02:58:10.106Z,15.32
2023-02-09T03:01:01.328Z,14.47
2023-02-09T03:03:49.089Z,13.68
2023-02-09T03:06:38.763Z,14.30
2023-02-09T03:09:26.457Z,14.45
2023-02-09T03:12:41.573Z,15.45
2023-02-09T03:15:52.428Z,14.28
2023-02-09T03:19:16.147Z,16.70
2023-02-09T03:22:12.349Z,15.00
2023-02-09T03:25:02.856Z,14.58
2023-02-09T03:27:56.312Z,15.72
2023-02-09T03:30:45.230Z,13.45
2023-02-09T03:33:35.318Z,16.23
2023-02-09T03:36:23.420Z,15.68
2023-02-09T03:39:12.026Z,15.60
2023-02-09T03:41:59.220Z,14.60
2023-02-09T03:44:46.606Z,14.78
2023-02-09T03:47:34.348Z,14.65
2023-02-09T03:50:21.530Z,14.93
2023-02-09T03:53:09.090Z,17.32
2023-02-09T03:55:56.279Z,15.88
2023-02-09T03:58:43.545Z,16.90
2023-02-09T04:01:33.321Z,14.78
2023-02-09T04:04:21.313Z,15.55
2023-02-09T04:07:08.710Z,15.80
2023-02-09T04:09:55.885Z,15.23
2023-02-09T04:12:43.128Z,16.42
2023-02-09T04:15:30.585Z,16.75
2023-02-09T04:18:18.005Z,15.85
2023-02-09T04:21:05.280Z,15.95
2023-02-09T04:23:52.523Z,14.73
2023-02-09T04:26:39.666Z,15.32
2023-02-09T04:29:27.433Z,15.23
2023-02-09T04:32:14.867Z,15.55
2023-02-09T04:35:02.238Z,16.35
2023-02-09T04:37:49.687Z,16.20
2023-02-09T04:40:37.076Z,16.25
2023-02-09T04:43:24.479Z,16.27
2023-02-09T04:46:15.756Z,16.23
2023-02-09T04:49:03.267Z,15.88
2023-02-09T04:51:50.841Z,15.80
2023-02-09T04:54:38.373Z,16.37
2023-02-09T04:57:44.197Z,15.72
2023-02-09T05:00:31.405Z,17.25
2023-02-09T05:03:19.065Z,16.37
2023-02-09T05:06:07.158Z,15.08
2023-02-09T05:08:54.978Z,17.52
2023-02-09T05:11:42.483Z,16.75
2023-02-09T05:14:29.643Z,16.23
2023-02-09T05:17:18.497Z,17.48
2023-02-09T05:20:06.517Z,15.93
2023-02-09T05:22:53.309Z,17.60
2023-02-09T05:25:40.512Z,17.10
2023-02-09T05:28:28.098Z,15.63
2023-02-09T05:31:15.630Z,15.75
2023-02-09T05:34:03.338Z,15.72
2023-02-09T05:36:50.857Z,17.27
2023-02-09T05:39:38.620Z,15.75
2023-02-09T05:42:27.573Z,16.32
2023-02-09T05:45:15.081Z,16.05
2023-02-09T05:48:02.344Z,16.05
2023-02-09T05:50:50.048Z,16.27
2023-02-09T05:53:37.482Z,17.02
2023-02-09T05:56:24.705Z,16.90
2023-02-09T05:59:12.339Z,17.60
2023-02-09T06:01:59.863Z,17.60
2023-02-09T06:04:47.186Z,18.90
2023-02-09T06:07:34.735Z,16.60
2023-02-09T06:10:22.733Z,16.20
2023-02-09T06:13:09.824Z,15.88
2023-02-09T06:15:57.164Z,17.27
2023-02-09T06:18:44.442Z,17.57
2023-02-09T06:21:31.776Z,16.40
2023-02-09T06:24:19.301Z,18.17
2023-02-09T06:27:06.542Z,16.32
2023-02-09T06:29:53.944Z,16.70
2023-02-09T06:32:41.502Z,16.93
2023-02-09T06:35:28.754Z,18.12
2023-02-09T06:38:15.938Z,16.77
2023-02-09T06:41:03.808Z,16.15
2023-02-09T06:43:51.310Z,16.23
2023-02-09T06:46:39.531Z,16.10
2023-02-09T06:49:27.150Z,15.60
2023-02-09T06:52:14.342Z,17.48
2023-02-09T06:55:02.005Z,17.57
2023-02-09T06:57:49.261Z,17.25
2023-02-09T07:00:37.026Z,17.85
2023-02-09T07:03:24.551Z,17.73
2023-02-09T07:06:15.548Z,16.93
2023-02-09T07:09:03.352Z,17.32
2023-02-09T07:11:50.979Z,17.95
2023-02-09T07:14:38.308Z,18.12
2023-02-09T07:17:25.783Z,17.62
2023-02-09T07:20:13.384Z,17.37
2023-02-09T07:23:01.853Z,18.67
2023-02-09T07:25:49.411Z,17.85
2023-02-09T07:28:37.899Z,19.50
2023-02-09T07:31:27.133Z,18.48
2023-02-09T07:34:14.240Z,17.42
2023-02-09T07:37:01.584Z,19.60
2023-02-09T07:39:48.760Z,19.98
2023-02-09T07:42:35.856Z,19.87
2023-02-09T07:45:23.654Z,18.87
2023-02-09T07:48:12.600Z,20.50
2023-02-09T07:51:00.847Z,18.35
2023-02-09T07:53:48.907Z,18.75
2023-02-09T07:56:36.271Z,19.15
2023-02-09T07:59:23.546Z,20.12
2023-02-09T08:02:13.932Z,18.50
2023-02-09T08:05:01.895Z,19.00
2023-02-09T08:07:49.774Z,21.02
2023-02-09T08:10:38.815Z,19.20
2023-02-09T08:13:28.961Z,19.62
2023-02-09T08:16:19.397Z,18.45
2023-02-09T08:19:14.982Z,18.02
2023-02-09T08:22:02.122Z,18.17
2023-02-09T08:24:49.623Z,17.48
2023-02-09T08:27:39.450Z,16.37
2023-02-09T08:30:27.145Z,17.10
2023-02-09T08:33:14.404Z,16.52
2023-02-09T08:36:01.935Z,17.07
2023-02-09T08:38:49.549Z,16.95
2023-02-09T08:41:37.044Z,17.75
2023-02-09T08:44:24.464Z,17.32
2023-02-09T08:47:12.024Z,18.02
2023-02-09T08:50:00.390Z,16.07
2023-02-09T08:52:47.619Z,17.48
2023-02-09T08:55:39.053Z,17.45
2023-02-09T08:58:28.073Z,16.97
2023-02-09T09:01:15.299Z,16.10
2023-02-09T09:04:02.827Z,16.57
2023-02-09T09:06:50.040Z,18.00
2023-02-09T09:09:37.304Z,16.77
2023-02-09T09:12:25.159Z,18.42
2023-02-09T09:15:12.351Z,16.23
2023-02-09T09:18:00.207Z,16.05
2023-02-09T09:20:47.820Z,16.15
2023-02-09T09:23:35.390Z,17.50
2023-02-09T09:26:23.066Z,15.65
2023-02-09T09:29:11.219Z,16.48
2023-02-09T09:31:58.797Z,17.17
2023-02-09T09:34:46.246Z,17.05
2023-02-09T09:37:33.896Z,15.83
2023-02-09T09:40:24.281Z,17.92
2023-02-09T09:43:36.071Z,16.73
2023-02-09T09:46:28.795Z,16.23
2023-02-09T09:49:22.036Z,16.73
2023-02-09T09:52:12.280Z,16.70
2023-02-09T09:55:01.627Z,15.32
2023-02-09T09:57:49.647Z,15.90
2023-02-09T10:00:42.070Z,15.23
2023-02-09T10:03:29.581Z,15.83
2023-02-09T10:06:23.054Z,15.23
2023-02-09T10:09:28.629Z,15.48
2023-02-09T10:12:19.251Z,14.95
2023-02-09T10:15:21.457Z,16.90
2023-02-09T10:18:11.687Z,16.48
2023-02-09T10:21:05.005Z,16.57
2023-02-09T10:24:04.386Z,16.35
2023-02-09T10:27:28.322Z,14.85
2023-02-09T10:30:21.391Z,16.10
2023-02-09T10:33:11.601Z,15.75
2023-02-09T10:36:05.513Z,15.85
2023-02-09T10:38:53.999Z,16.30
2023-02-09T10:41:43.732Z,15.75
2023-02-09T10:44:36.188Z,17.67
2023-02-09T10:47:27.091Z,15.72
2023-02-09T10:50:17.628Z,16.12
2023-02-09T10:53:07.949Z,16.55
2023-02-09T10:56:22.546Z,15.15
2023-02-09T10:59:22.245Z,16.17
2023-02-09T11:02:14.124Z,17.10
2023-02-09T11:05:01.345Z,16.62
2023-02-09T11:08:08.525Z,16.02
2023-02-09T11:11:20.289Z,17.57
2023-02-09T11:14:17.338Z,16.40
2023-02-09T11:17:37.740Z,17.27
2023-02-09T11:20:31.990Z,16.32
2023-02-09T11:23:25.207Z,16.67
2023-02-09T11:26:24.702Z,15.60
2023-02-09T11:29:27.550Z,17.80
2023-02-09T11:32:26.796Z,17.80
2023-02-09T11:35:16.509Z,17.42
2023-02-09T11:38:13.577Z,16.82
2023-02-09T11:41:04.561Z,17.00
2023-02-09T11:43:53.425Z,18.07
2023-02-09T11:46:42.171Z,17.57
2023-02-09T11:49:32.241Z,16.82
2023-02-09T11:52:31.002Z,17.20
2023-02-09T11:55:41.252Z,17.82
2023-02-09T11:58:54.806Z,17.67
2023-02-09T12:01:56.253Z,17.07
2023-02-09T12:04:46.567Z,17.07
2023-02-09T12:07:40.311Z,18.57
2023-02-09T12:10:30.524Z,17.85
2023-02-09T12:13:41.878Z,17.62
2023-02-09T12:16:38.312Z,17.05
2023-02-09T12:19:37.470Z,17.77
2023-02-09T12:22:39.672Z,16.55
2023-02-09T12:25:52.881Z,17.40
2023-02-09T12:28:49.426Z,16.52
2023-02-09T12:32:07.319Z,15.90
2023-02-09T12:34:56.128Z,16.40
2023-02-09T12:37:46.456Z,16.10
2023-02-09T12:40:38.703Z,15.45
2023-02-09T12:43:29.110Z,16.45
2023-02-09T12:46:26.289Z,16.32
2023-02-09T12:49:21.045Z,16.15
2023-02-09T12:52:17.357Z,17.65
2023-02-09T12:55:07.676Z,16.62
2023-02-09T12:57:54.908Z,16.07
2023-02-09T13:00:43.432Z,16.40
2023-02-09T13:03:33.204Z,16.67
2023-02-09T13:06:38.078Z,18.30
2023-02-09T13:09:31.325Z,16.37
2023-02-09T13:12:24.686Z,17.25
2023-02-09T13:15:17.659Z,16.25
2023-02-09T13:18:35.525Z,16.82
2023-02-09T13:21:34.968Z,16.70
2023-02-09T13:24:25.189Z,16.65
2023-02-09T13:27:21.706Z,17.25
2023-02-09T13:30:15.142Z,16.70
2023-02-09T13:33:08.397Z,17.52
2023-02-09T13:36:24.138Z,17.27
2023-02-09T13:39:04.326Z,17.32
2023-02-09T13:41:53.757Z,17.98
2023-02-09T13:44:43.820Z,17.20
2023-02-09T13:47:31.334Z,17.48
2023-02-09T13:50:21.541Z,16.73
2023-02-09T13:53:11.391Z,16.95
2023-02-09T13:56:01.227Z,16.77
2023-02-09T13:58:49.499Z,17.67
2023-02-09T14:01:38.215Z,16.27
2023-02-09T14:04:28.814Z,17.37
2023-02-09T14:07:16.013Z,17.82
2023-02-09T14:10:06.471Z,16.82
2023-02-09T14:13:05.428Z,17.77
2023-02-09T14:16:07.691Z,18.35
2023-02-09T14:19:00.712Z,18.40
2023-02-09T14:21:48.165Z,17.90
2023-02-09T14:24:45.936Z,17.70
2023-02-09T14:27:36.428Z,18.05
2023-02-09T14:30:31.093Z,18.67
2023-02-09T14:33:25.493Z,17.77
2023-02-09T14:36:28.096Z,17.23
2023-02-09T14:39:19.743Z,17.35
2023-02-09T14:42:12.920Z,16.80
2023-02-09T14:45:03.624Z,17.50
2023-02-09T14:47:50.663Z,18.92
2023-02-09T14:50:38.883Z,16.70
2023-02-09T14:53:29.215Z,17.07
2023-02-09T14:56:28.880Z,17.30
2023-02-09T14:59:18.381Z,17.32
2023-02-09T15:02:19.033Z,17.70
2023-02-09T15:05:06.846Z,16.87
2023-02-09T15:07:57.097Z,18.57
2023-02-09T15:10:59.682Z,17.95
2023-02-09T15:13:48.452Z,18.15
2023-02-09T15:16:35.852Z,18.20
2023-02-09T15:19:23.942Z,19.02
2023-02-09T15:22:15.991Z,18.23
2023-02-09T15:25:03.613Z,17.98
2023-02-09T15:27:53.685Z,18.10
2023-02-09T15:30:41.314Z,17.40
2023-02-09T15:33:29.982Z,17.25
2023-02-09T15:36:20.157Z,18.20
2023-02-09T15:39:10.499Z,16.95
2023-02-09T15:42:15.822Z,18.00
2023-02-09T15:45:39.607Z,18.82
2023-02-09T15:48:27.229Z,17.50
2023-02-09T15:51:15.647Z,17.80
2023-02-09T15:54:06.216Z,17.52
2023-02-09T15:56:54.925Z,17.30
2023-02-09T16:00:01.247Z,18.32
2023-02-09T16:02:51.645Z,18.57
2023-02-09T16:05:39.002Z,18.87
2023-02-09T16:08:30.074Z,19.00
2023-02-09T16:11:23.132Z,19.17
2023-02-09T16:14:16.318Z,18.27
2023-02-09T16:17:03.740Z,17.98
2023-02-09T16:19:51.426Z,19.35
2023-02-09T16:22:41.126Z,19.07
2023-02-09T16:25:30.046Z,19.32
2023-02-09T16:28:17.663Z,18.55
2023-02-09T16:31:04.808Z,19.82
2023-02-09T16:33:53.810Z,19.98
2023-02-09T16:36:41.118Z,19.82
2023-02-09T16:39:28.471Z,21.37
2023-02-09T16:42:17.198Z,20.92
2023-02-09T16:45:05.749Z,19.95
2023-02-09T16:47:58.800Z,19.85
2023-02-09T16:50:48.095Z,20.77
2023-02-09T16:53:38.063Z,20.45
2023-02-09T16:56:27.048Z,20.08
2023-02-09T16:59:14.638Z,19.87
2023-02-09T17:02:02.166Z,20.12
2023-02-09T17:04:49.229Z,18.60
2023-02-09T17:07:52.542Z,19.23
2023-02-09T17:10:30.609Z,18.90
2023-02-09T17:13:19.964Z,17.98
2023-02-09T17:16:08.968Z,17.30
2023-02-09T17:19:01.571Z,16.65
2023-02-09T17:21:48.887Z,16.77
2023-02-09T17:24:36.096Z,18.65
2023-02-09T17:27:23.199Z,18.37
2023-02-09T17:30:12.880Z,18.40
2023-02-09T17:33:03.552Z,17.50
2023-02-09T17:36:23.805Z,18.05
2023-02-09T17:38:44.063Z,18.20
2023-02-09T17:41:38.317Z,18.60
2023-02-09T17:44:44.564Z,18.42
2023-02-09T17:47:23.016Z,19.17
2023-02-09T17:50:10.577Z,18.65
2023-02-09T17:52:58.156Z,20.15
2023-02-09T17:55:46.211Z,18.10
2023-02-09T17:58:35.024Z,17.75
2023-02-09T18:01:27.698Z,17.52
2023-02-09T18:04:22.304Z,17.25
2023-02-09T18:07:10.514Z,17.48
2023-02-09T18:09:57.881Z,17.92
2023-02-09T18:12:46.218Z,18.15
2023-02-09T18:15:39.543Z,17.67
2023-02-09T18:18:27.131Z,17.30
2023-02-09T18:21:15.098Z,17.25
2023-02-09T18:24:02.843Z,17.70
2023-02-09T18:26:51.066Z,17.60
2023-02-09T18:29:38.150Z,18.40
2023-02-09T18:32:26.366Z,20.08
2023-02-09T18:35:25.705Z,19.80
2023-02-09T18:38:15.776Z,18.17
2023-02-09T18:41:03.337Z,19.17
2023-02-09T18:43:51.343Z,20.23
2023-02-09T18:46:39.335Z,20.17
2023-02-09T18:49:27.006Z,18.90
2023-02-09T18:52:18.682Z,19.67
2023-02-09T18:55:06.445Z,19.85
2023-02-09T18:57:53.913Z,20.60
2023-02-09T19:00:41.441Z,19.62
2023-02-09T19:03:29.014Z,21.35
2023-02-09T19:06:16.316Z,19.17
2023-02-09T19:09:03.968Z,21.80
2023-02-09T19:11:51.761Z,20.35
2023-02-09T19:14:41.681Z,20.32
2023-02-09T19:17:29.784Z,22.27
2023-02-09T19:20:23.342Z,20.65
2023-02-09T19:23:10.562Z,21.50
2023-02-09T19:26:06.467Z,20.65
2023-02-09T19:28:55.445Z,19.57
2023-02-09T19:31:42.750Z,19.45
2023-02-09T19:34:35.909Z,20.30
2023-02-09T19:37:23.748Z,19.12
2023-02-09T19:40:12.903Z,20.77
2023-02-09T19:43:00.209Z,19.62
2023-02-09T19:45:49.193Z,20.00
2023-02-09T19:48:37.836Z,20.12
2023-02-09T19:51:25.683Z,21.50
2023-02-09T19:54:12.852Z,20.92
2023-02-09T19:57:00.537Z,19.60
2023-02-09T19:59:48.576Z,21.15
2023-02-09T20:02:35.899Z,20.85
2023-02-09T20:05:22.929Z,20.85
2023-02-09T20:08:12.844Z,20.75
2023-02-09T20:11:00.257Z,22.15
2023-02-09T20:13:52.236Z,22.27
2023-02-09T20:16:40.756Z,22.32
2023-02-09T20:19:28.193Z,22.30
2023-02-09T20:22:15.911Z,21.93
2023-02-09T20:25:03.343Z,22.27
2023-02-09T20:27:50.938Z,21.62
2023-02-09T20:30:41.479Z,20.90
2023-02-09T20:33:28.843Z,22.87
2023-02-09T20:36:17.541Z,20.45
2023-02-09T20:39:06.787Z,22.22
2023-02-09T20:42:16.868Z,20.02
2023-02-09T20:45:22.810Z,24.00
2023-02-09T20:48:11.109Z,22.67
2023-02-09T20:50:58.373Z,24.32
2023-02-09T20:53:46.425Z,23.47
2023-02-09T20:56:34.375Z,22.70
2023-02-09T20:59:21.475Z,22.70
2023-02-09T21:02:10.352Z,21.50
2023-02-09T21:04:59.516Z,23.27
2023-02-09T21:07:48.448Z,22.27
2023-02-09T21:10:38.219Z,21.42
2023-02-09T21:13:25.758Z,23.47
2023-02-09T21:16:20.159Z,23.57
2023-02-09T21:19:07.756Z,23.55
2023-02-09T21:21:55.061Z,22.20
2023-02-09T21:24:43.180Z,23.30
2023-02-09T21:27:30.976Z,23.05
2023-02-09T21:30:19.077Z,24.02
2023-02-09T21:33:06.184Z,22.95
2023-02-09T21:35:53.537Z,22.95
2023-02-09T21:38:42.509Z,23.45
2023-02-09T21:41:48.173Z,24.87
2023-02-09T21:44:37.496Z,23.80
2023-02-09T21:47:35.809Z,24.23
2023-02-09T21:50:23.108Z,23.87
2023-02-09T21:53:11.335Z,23.92
2023-02-09T21:55:58.804Z,21.95
2023-02-09T21:58:46.254Z,23.95
2023-02-09T22:01:34.498Z,23.07
2023-02-09T22:04:25.808Z,22.35
2023-02-09T22:07:14.136Z,24.65
2023-02-09T22:10:02.448Z,23.77
2023-02-09T22:12:50.136Z,23.67
2023-02-09T22:15:42.732Z,24.65
2023-02-09T22:18:29.943Z,24.37
2023-02-09T22:21:18.994Z,24.47
2023-02-09T22:24:06.265Z,23.50
2023-02-09T22:26:54.262Z,22.58
2023-02-09T22:29:41.740Z,23.15
2023-02-09T22:32:31.116Z,23.92
2023-02-09T22:35:18.732Z,22.67
2023-02-09T22:38:06.313Z,23.95
2023-02-09T22:40:53.816Z,24.45
2023-02-09T22:43:41.061Z,25.10
2023-02-09T22:46:34.662Z,23.67
2023-02-09T22:49:22.687Z,26.77
2023-02-09T22:52:10.458Z,24.92
2023-02-09T22:54:59.267Z,23.90
2023-02-09T22:57:46.425Z,23.50
2023-02-09T23:00:33.962Z,23.45
2023-02-09T23:03:21.665Z,23.40
2023-02-09T23:06:14.471Z,24.85
2023-02-09T23:09:04.591Z,24.18
2023-02-09T23:11:56.007Z,24.27
2023-02-09T23:14:43.365Z,24.30
2023-02-09T23:17:32.916Z,24.37
2023-02-09T23:20:21.849Z,24.85
2023-02-09T23:23:11.289Z,25.57
2023-02-09T23:25:58.970Z,23.57
2023-02-09T23:28:46.839Z,25.05
2023-02-09T23:31:34.986Z,25.40
2023-02-09T23:34:23.749Z,24.52
2023-02-09T23:37:18.757Z,21.87
2023-02-09T23:40:01.481Z,22.67
2023-02-09T23:42:49.025Z,21.93
2023-02-09T23:45:36.315Z,21.87
2023-02-09T23:48:23.683Z,21.05
2023-02-09T23:51:14.029Z,21.45
2023-02-09T23:54:04.142Z,20.40
2023-02-09T23:56:52.879Z,20.70
2023-02-09T23:59:41.552Z,22.55
